Terminal Aerodrome Forecast
Issued by NWS Grand Forks, ND

Home | Current Version | Previous Version | Text Only | Print | Product List | Glossary Off
Versions: 1 2 3 4 5 6 7 8 9 10 11 12 13 14 15 16 17 18 19 20 21

000
FTUS43 KFGF 121734
TAFFAR
TAF
KFAR 121734Z 1218/1318 19011KT P6SM OVC060
     FM130500 22009KT P6SM BKN150
     FM130700 25011KT P6SM -FZDZ OVC100
     FM131000 32020G30KT 4SM -SN OVC015
     FM131300 33027G40KT 1SM -SN BLSN OVC015=

USA.gov is the U.S. government's official web portal to all federal, state and local government web resources and services.